Portada
METAR-TAF:

METAR-TAF

Aeroports :

Quakertown Airport

Quakertown, Pennsilvània, Estats Units d'Amèrica

latitud: 40-26-06N, longitud: 075-22-54W, altitud: 160 m

Observació

L'informe es va fer fa 17 minuts, a les 03:15 UTC
Vent calma
Temperatura 3°C
Humitat 75%
Pressió 1026 hPa
Visibilitat: 16.1 km
Cel clar

METAR: KUKT 310315Z AUTO 00000KT 10SM CLR 03/M01 A3029 RMK A01

Hora: 23:32 (03:32 UTC)


TAF: manca

Observacions i pronòstics meteorològics de més de 4000 aeroports (METAR i TAF).

Les estacions disponibles són els punts grocs i vermells al mapa.

Posi el ratolí al punt desitjat per veure el nom de l'estació.

Feu clic per veure les observacions i els pronòstics meteorològics.

Per canviar el mapa: feu clic els botons verds amb una creu de color negre per apropar; al botó verd amb un guió per allunyar la imatge; o en les fletxes verdes per a mapes adjacents.


METAR-TAF: